createdAt,value
2018-08-12T00:03:43.926Z,12.80
2018-08-12T00:08:54.316Z,12.58
2018-08-12T00:14:03.381Z,12.39
2018-08-12T00:19:12.673Z,12.16
2018-08-12T00:24:22.510Z,11.94
2018-08-12T00:29:31.820Z,11.69
2018-08-12T00:34:40.448Z,11.45
2018-08-12T00:39:50.088Z,11.27
2018-08-12T00:44:59.367Z,11.17
2018-08-12T00:50:09.196Z,10.95
2018-08-12T00:55:18.699Z,10.81
2018-08-12T01:00:27.533Z,10.72
2018-08-12T01:05:36.351Z,10.59
2018-08-12T01:10:45.423Z,10.45
2018-08-12T01:15:54.287Z,10.30
2018-08-12T01:21:03.745Z,10.30
2018-08-12T01:26:12.792Z,10.16
2018-08-12T01:31:22.960Z,10.10
2018-08-12T01:36:32.658Z,10.08
2018-08-12T01:41:42.010Z,10.11
2018-08-12T01:46:51.298Z,9.99
2018-08-12T01:52:00.713Z,9.93
2018-08-12T01:57:09.633Z,10.01
2018-08-12T02:02:19.131Z,10.05
2018-08-12T02:07:28.549Z,10.27
2018-08-12T02:12:38.148Z,10.07
2018-08-12T02:17:47.727Z,10.05
2018-08-12T02:22:56.997Z,10.16
2018-08-12T02:28:06.525Z,10.22
2018-08-12T02:33:15.720Z,10.20
2018-08-12T02:38:24.754Z,9.96
2018-08-12T02:43:33.664Z,10.02
2018-08-12T02:48:43.350Z,10.11
2018-08-12T02:53:52.762Z,10.26
2018-08-12T02:59:01.701Z,10.20
2018-08-12T03:04:10.605Z,10.29
2018-08-12T03:09:19.973Z,10.19
2018-08-12T03:14:29.207Z,10.25
2018-08-12T03:19:38.115Z,10.23
2018-08-12T03:24:47.857Z,10.16
2018-08-12T03:29:56.626Z,10.13
2018-08-12T03:35:05.738Z,10.08
2018-08-12T03:40:14.980Z,10.15
2018-08-12T03:45:23.807Z,10.18
2018-08-12T03:50:33.436Z,10.28
2018-08-12T03:55:43.040Z,10.37
2018-08-12T04:00:52.546Z,10.56
2018-08-12T04:06:02.094Z,10.73
2018-08-12T04:11:11.045Z,11.06
2018-08-12T04:16:20.706Z,11.22
2018-08-12T04:21:29.846Z,11.31
2018-08-12T04:26:38.993Z,11.33
2018-08-12T04:31:48.638Z,11.28
2018-08-12T04:36:57.512Z,11.32
2018-08-12T04:42:06.641Z,11.44
2018-08-12T04:47:15.967Z,11.72
2018-08-12T04:52:25.533Z,13.02
2018-08-12T04:57:34.780Z,17.97
2018-08-12T05:02:44.170Z,21.36
2018-08-12T05:07:53.722Z,22.88
2018-08-12T05:13:02.474Z,23.85
2018-08-12T05:18:12.033Z,24.84
2018-08-12T05:23:21.468Z,27.09
2018-08-12T05:28:30.642Z,27.61
2018-08-12T05:33:39.474Z,27.21
2018-08-12T05:38:57.065Z,27.33
2018-08-12T05:44:06.967Z,27.22
2018-08-12T05:49:16.469Z,26.13
2018-08-12T05:54:26.034Z,27.30
2018-08-12T05:59:35.257Z,29.04
2018-08-12T06:09:57.359Z,31.70
2018-08-12T06:15:06.879Z,31.84
2018-08-12T06:20:16.364Z,31.24
2018-08-12T06:25:25.316Z,30.14
2018-08-12T06:30:34.340Z,31.06
2018-08-12T06:35:43.515Z,30.27
2018-08-12T06:40:52.969Z,27.83
2018-08-12T06:46:02.164Z,26.23
2018-08-12T06:51:11.281Z,24.25
2018-08-12T06:56:20.216Z,23.13
2018-08-12T07:01:29.234Z,22.58
2018-08-12T07:06:38.425Z,22.36
2018-08-12T07:11:47.571Z,22.51
2018-08-12T07:16:56.801Z,21.98
2018-08-12T07:22:06.049Z,21.72
2018-08-12T07:27:15.171Z,21.42
2018-08-12T07:32:24.648Z,21.25
2018-08-12T07:37:34.793Z,20.99
2018-08-12T07:42:43.720Z,21.02
2018-08-12T07:47:52.698Z,21.30
2018-08-12T07:53:01.941Z,21.48
2018-08-12T07:58:11.284Z,21.85
2018-08-12T08:03:20.171Z,21.99
2018-08-12T08:08:29.721Z,21.94
2018-08-12T08:13:39.247Z,22.26
2018-08-12T08:18:48.191Z,22.30
2018-08-12T08:23:57.583Z,22.40
2018-08-12T08:29:06.947Z,22.85
2018-08-12T08:34:15.553Z,22.82
2018-08-12T08:39:24.897Z,22.89
2018-08-12T08:44:34.568Z,23.23
2018-08-12T08:49:43.223Z,23.34
2018-08-12T08:54:52.728Z,24.03
2018-08-12T09:00:01.450Z,24.36
2018-08-12T09:05:10.744Z,27.25
2018-08-12T09:10:19.849Z,29.46
2018-08-12T09:15:29.861Z,31.04
2018-08-12T09:20:39.469Z,31.59
2018-08-12T09:25:48.364Z,31.67
2018-08-12T09:30:57.500Z,31.50
2018-08-12T09:36:07.096Z,32.02
2018-08-12T09:41:16.242Z,29.73
2018-08-12T09:46:25.559Z,29.13
2018-08-12T09:51:34.556Z,32.08
2018-08-12T09:56:43.302Z,30.98
2018-08-12T10:01:52.047Z,31.32
2018-08-12T10:07:01.342Z,31.84
2018-08-12T10:12:10.206Z,32.19
2018-08-12T10:17:19.181Z,31.28
2018-08-12T10:22:28.172Z,31.46
2018-08-12T10:27:37.116Z,31.42
2018-08-12T10:32:45.876Z,31.16
2018-08-12T10:37:55.762Z,32.43
2018-08-12T10:43:04.777Z,31.20
2018-08-12T10:48:13.681Z,30.38
2018-08-12T10:53:22.879Z,31.29
2018-08-12T10:58:32.500Z,31.05
2018-08-12T11:03:41.519Z,30.64
2018-08-12T11:08:50.276Z,30.78
2018-08-12T11:14:00.242Z,30.29
2018-08-12T11:19:09.448Z,29.25
2018-08-12T11:24:18.439Z,28.59
2018-08-12T11:29:27.725Z,29.36
2018-08-12T11:34:36.687Z,28.99
2018-08-12T11:39:45.390Z,28.60
2018-08-12T11:44:54.534Z,29.19
2018-08-12T11:50:04.325Z,29.20
2018-08-12T11:55:15.429Z,29.11
2018-08-12T12:00:24.702Z,28.90
2018-08-12T12:05:33.946Z,28.73
2018-08-12T12:10:42.856Z,28.97
2018-08-12T12:15:52.064Z,29.94
2018-08-12T12:21:01.073Z,29.09
2018-08-12T12:26:10.048Z,29.45
2018-08-12T12:31:19.164Z,28.66
2018-08-12T12:36:28.769Z,28.61
2018-08-12T12:41:37.812Z,28.37
2018-08-12T12:46:47.163Z,29.53
2018-08-12T12:51:56.548Z,29.01
2018-08-12T12:57:05.591Z,29.12
2018-08-12T13:02:14.367Z,29.61
2018-08-12T13:07:23.461Z,29.46
2018-08-12T13:12:32.832Z,29.69
2018-08-12T13:17:42.506Z,29.71
2018-08-12T13:22:52.044Z,29.23
2018-08-12T13:28:01.874Z,29.26
2018-08-12T13:33:11.167Z,29.45
2018-08-12T13:38:20.460Z,29.38
2018-08-12T13:43:29.646Z,29.92
2018-08-12T13:48:38.721Z,29.98
2018-08-12T13:53:47.705Z,29.24
2018-08-12T13:58:57.063Z,29.28
2018-08-12T14:04:05.838Z,29.36
2018-08-12T14:09:14.837Z,30.19
2018-08-12T14:14:24.196Z,30.42
2018-08-12T14:19:33.414Z,29.59
2018-08-12T14:24:43.443Z,29.40
2018-08-12T14:29:52.418Z,29.61
2018-08-12T14:35:02.213Z,29.94
2018-08-12T14:40:12.249Z,30.04
2018-08-12T14:45:21.517Z,30.23
2018-08-12T14:50:30.879Z,29.96
2018-08-12T14:55:39.579Z,29.77
2018-08-12T15:00:48.657Z,29.86
2018-08-12T15:05:58.064Z,29.63
2018-08-12T15:11:07.127Z,29.99
2018-08-12T15:16:16.500Z,29.75
2018-08-12T15:21:25.654Z,29.59
2018-08-12T15:26:34.988Z,29.68
2018-08-12T15:31:43.867Z,29.80
2018-08-12T15:36:52.993Z,30.24
2018-08-12T15:42:02.420Z,29.77
2018-08-12T15:47:11.251Z,29.99
2018-08-12T15:52:20.428Z,30.09
2018-08-12T15:57:29.515Z,30.63
2018-08-12T16:02:38.890Z,30.91
2018-08-12T16:07:48.145Z,30.69
2018-08-12T16:12:57.492Z,30.37
2018-08-12T16:18:06.728Z,29.53
2018-08-12T16:23:16.040Z,29.06
2018-08-12T16:28:24.999Z,28.43
2018-08-12T16:33:34.333Z,27.83
2018-08-12T16:38:43.709Z,27.56
2018-08-12T16:43:52.348Z,27.43
2018-08-12T16:49:01.474Z,27.56
2018-08-12T16:54:10.678Z,27.46
2018-08-12T16:59:19.841Z,27.70
2018-08-12T17:04:29.306Z,27.97
2018-08-12T17:09:38.270Z,27.81
2018-08-12T17:14:47.210Z,28.10
2018-08-12T17:19:56.180Z,28.06
2018-08-12T17:25:05.628Z,27.57
2018-08-12T17:30:14.343Z,26.97
2018-08-12T17:35:23.066Z,26.42
2018-08-12T17:40:32.147Z,25.86
2018-08-12T17:45:41.004Z,25.27
2018-08-12T17:50:49.969Z,24.70
2018-08-12T17:56:00.100Z,24.14
2018-08-12T18:01:09.617Z,23.62
2018-08-12T18:06:18.915Z,23.15
2018-08-12T18:11:28.170Z,22.76
2018-08-12T18:16:37.488Z,22.34
2018-08-12T18:21:46.964Z,21.86
2018-08-12T18:26:57.760Z,21.46
2018-08-12T18:32:06.501Z,21.11
2018-08-12T18:37:15.740Z,20.74
2018-08-12T18:42:25.220Z,20.56
2018-08-12T18:47:34.748Z,20.27
2018-08-12T18:52:45.130Z,19.96
2018-08-12T18:57:54.070Z,19.64
2018-08-12T19:03:03.731Z,19.39
2018-08-12T19:08:12.494Z,19.18
2018-08-12T19:13:22.793Z,19.16
2018-08-12T19:18:32.197Z,18.84
2018-08-12T19:23:44.668Z,18.74
2018-08-12T19:28:55.412Z,18.40
2018-08-12T19:34:04.288Z,18.25
2018-08-12T19:39:13.184Z,17.92
2018-08-12T19:44:22.174Z,17.69
2018-08-12T19:49:31.446Z,17.59
2018-08-12T19:54:40.626Z,17.44
2018-08-12T19:59:49.996Z,17.18
2018-08-12T20:04:59.205Z,17.03
2018-08-12T20:10:08.670Z,16.95
2018-08-12T20:15:39.423Z,16.77
2018-08-12T20:20:48.728Z,16.60
2018-08-12T20:25:58.424Z,16.46
2018-08-12T20:31:07.407Z,16.34
2018-08-12T20:36:16.690Z,16.17
2018-08-12T20:41:25.928Z,16.06
2018-08-12T20:46:35.272Z,16.03
2018-08-12T20:51:44.359Z,16.02
2018-08-12T20:56:53.430Z,15.85
2018-08-12T21:02:02.940Z,15.77
2018-08-12T21:07:12.561Z,15.60
2018-08-12T21:12:22.375Z,15.49
2018-08-12T21:17:31.935Z,15.38
2018-08-12T21:22:41.356Z,15.30
2018-08-12T21:27:50.354Z,15.15
2018-08-12T21:32:59.561Z,15.05
2018-08-12T21:38:08.545Z,14.97
2018-08-12T21:43:17.822Z,14.90
2018-08-12T21:48:27.245Z,14.85
2018-08-12T21:53:36.107Z,14.73
2018-08-12T21:58:45.038Z,14.52
2018-08-12T22:03:54.472Z,14.30
2018-08-12T22:09:06.051Z,14.21
2018-08-12T22:14:14.749Z,14.15
2018-08-12T22:19:23.952Z,14.03
2018-08-12T22:24:33.098Z,13.90
2018-08-12T22:29:42.276Z,13.81
2018-08-12T22:34:51.571Z,13.67
2018-08-12T22:40:01.178Z,13.51
2018-08-12T22:45:10.640Z,13.44
2018-08-12T22:50:20.160Z,13.40
2018-08-12T22:55:28.897Z,13.35
2018-08-12T23:00:38.084Z,13.28
2018-08-12T23:05:47.495Z,13.24
2018-08-12T23:10:56.554Z,13.24
2018-08-12T23:16:16.997Z,13.18
2018-08-12T23:21:25.919Z,13.12
2018-08-12T23:26:34.848Z,13.15
2018-08-12T23:31:43.746Z,13.05
2018-08-12T23:36:53.273Z,12.91
2018-08-12T23:42:02.647Z,12.81
2018-08-12T23:47:11.782Z,12.71
2018-08-12T23:52:21.111Z,12.63
2018-08-12T23:57:30.178Z,12.53
